Anzoras — EAZC — position and weather

sailwx.info

Track history (hours):
 
Tides and Currents Weather Stations Pressure Air Temp Water Temp Dewpoint Dewpoint Depression Visibility Wind Speed Wind Dir Waves Ship Positions

Anzoras

Last reported at 2015-Mar-23 06:28 UTC. Time now 2015-Mar-27 10:16 UTC.
Position N 37°55' W 009°56'.

Length 100 m; draft 4.3 m.

Type: Cargo ship. MMSI: 224376000.

Date/timePositionNaut miles runAvg speedWind from/ knotsBaromVisibWave heightAir tempDewpointWater temp
2015-Mar-23 06:28N 37°55' W 009°56'1211.9
2015-Mar-23 05:29N 38°07' W 009°58'1111.5
2015-Mar-23 04:32N 38°17' W 010°01'1111.5
2015-Mar-23 03:33N 38°29' W 010°03'1211.8
2015-Mar-23 02:34N 38°40' W 010°05'  
2015-Mar-17 14:25N 43°39' W 005°13'1011.5
2015-Mar-17 13:33N 43°40' W 005°27'1211.7
2015-Mar-17 12:31N 43°41' W 005°44'328 9.1
2015-Mar-16 00:32N 39°10' W 009°50'1111.2
2015-Mar-15 23:31N 38°59' W 009°50'1111.1
2015-Mar-15 22:32N 38°48' W 009°50'1111.0
2015-Mar-15 21:33N 38°37' W 009°48'1110.8
2015-Mar-15 20:33N 38°26' W 009°45'1110.7
2015-Mar-15 19:33N 38°16' W 009°42'1110.8
2015-Mar-15 18:33N 38°05' W 009°39'1110.9
2015-Mar-15 17:32N 37°54' W 009°37'1111.0
2015-Mar-15 16:33N 37°44' W 009°34'1211.1
2015-Mar-15 15:29N 37°33' W 009°30'1111.3
2015-Mar-15 14:32N 37°22' W 009°26'4310.2
2015-Mar-15 10:17N 36°44' W 009°01'811.1
2015-Mar-15 09:33N 36°42' W 008°51'16311.6
2015-Mar-14 19:29N 35°58' W 005°36'1010.2
2015-Mar-14 18:33N 36°01' W 005°25'1010.0
2015-Mar-14 17:33N 36°06' W 005°14'22211.0
2015-Mar-13 21:27N 37°33' W 000°60'  
Track history (hours):
 
Tides and Currents Weather Stations Pressure Air Temp Water Temp Dewpoint Dewpoint Depression Visibility Wind Speed Wind Dir Waves Ship Positions

Anzoras

Last reported at 2015-Mar-23 06:28 UTC. Time now 2015-Mar-27 10:16 UTC.
Position N 37°55' W 009°56'.

Length 100 m; draft 4.3 m.

Type: Cargo ship. MMSI: 224376000.

Date/timePositionNaut miles runAvg speedWind from/ knotsBaromVisibWave heightAir tempDewpointWater temp
2015-Mar-23 06:28N 37°55' W 009°56'1211.9
2015-Mar-23 05:29N 38°07' W 009°58'1111.5
2015-Mar-23 04:32N 38°17' W 010°01'1111.5
2015-Mar-23 03:33N 38°29' W 010°03'1211.8
2015-Mar-23 02:34N 38°40' W 010°05'  
2015-Mar-17 14:25N 43°39' W 005°13'1011.5
2015-Mar-17 13:33N 43°40' W 005°27'1211.7
2015-Mar-17 12:31N 43°41' W 005°44'328 9.1
2015-Mar-16 00:32N 39°10' W 009°50'1111.2
2015-Mar-15 23:31N 38°59' W 009°50'1111.1
2015-Mar-15 22:32N 38°48' W 009°50'1111.0
2015-Mar-15 21:33N 38°37' W 009°48'1110.8
2015-Mar-15 20:33N 38°26' W 009°45'1110.7
2015-Mar-15 19:33N 38°16' W 009°42'1110.8
2015-Mar-15 18:33N 38°05' W 009°39'1110.9
2015-Mar-15 17:32N 37°54' W 009°37'1111.0
2015-Mar-15 16:33N 37°44' W 009°34'1211.1
2015-Mar-15 15:29N 37°33' W 009°30'1111.3
2015-Mar-15 14:32N 37°22' W 009°26'4310.2
2015-Mar-15 10:17N 36°44' W 009°01'811.1
2015-Mar-15 09:33N 36°42' W 008°51'16311.6
2015-Mar-14 19:29N 35°58' W 005°36'1010.2
2015-Mar-14 18:33N 36°01' W 005°25'1010.0
2015-Mar-14 17:33N 36°06' W 005°14'22211.0
2015-Mar-13 21:27N 37°33' W 000°60'  

Dump ship's entire track history